Time;durP1;ratioP1;P1;durP2;ratioP2;P2;SDS_P1;SDS_P2;PMS_P1;PMS_P2;Temp;Humidity;BMP_temperature;BMP_pressure;BME280_temperature;BME280_humidity;BME280_pressure;Samples;Min_cycle;Max_cycle;Signal;HPM_P1;HPM_P2
2022/04/30 00:00:57;;;;;;;69.32;50.80;;;17.90;56.80;;;;;;4912034;28;96988;-66
2022/04/30 00:03:27;;;;;;;68.80;50.50;;;17.80;56.90;;;;;;4916620;28;96009;-66
2022/04/30 00:05:57;;;;;;;68.68;50.97;;;17.80;56.80;;;;;;4896965;28;97897;-69
2022/04/30 00:08:23;;;;;;;69.07;50.55;;;17.80;56.90;;;;;;4921294;28;95210;-66
2022/04/30 00:10:50;;;;;;;68.68;50.75;;;17.80;56.80;;;;;;4908815;28;95785;-68
2022/04/30 00:13:16;;;;;;;68.85;50.47;;;17.80;56.80;;;;;;4916440;28;95927;-67
2022/04/30 00:15:42;;;;;;;69.13;50.65;;;17.80;56.90;;;;;;4912687;28;97042;-67
2022/04/30 00:18:09;;;;;;;68.50;50.90;;;17.80;57.00;;;;;;4928411;28;96622;-66
2022/04/30 00:20:36;;;;;;;69.53;50.80;;;17.80;56.70;;;;;;4923296;28;98965;-67
2022/04/30 00:23:03;;;;;;;68.53;50.85;;;17.80;56.90;;;;;;4918466;28;94902;-66
2022/04/30 00:25:29;;;;;;;68.40;50.40;;;17.80;56.80;;;;;;4915790;28;95557;-66
2022/04/30 00:27:54;;;;;;;68.43;50.30;;;17.80;56.90;;;;;;4913829;28;96149;-67
2022/04/30 00:30:20;;;;;;;69.13;51.03;;;17.80;56.90;;;;;;4920258;28;96019;-67
2022/04/30 00:32:47;;;;;;;68.32;50.45;;;17.80;56.90;;;;;;4909354;28;96486;-67
2022/04/30 00:35:13;;;;;;;68.95;51.00;;;17.70;56.90;;;;;;4915082;28;95317;-67
2022/04/30 00:37:39;;;;;;;67.78;50.35;;;17.80;56.70;;;;;;4914922;28;96962;-67
2022/04/30 00:40:06;;;;;;;68.80;50.42;;;17.70;56.80;;;;;;4915639;28;96775;-67
2022/04/30 00:42:32;;;;;;;67.97;50.60;;;17.80;56.90;;;;;;4920190;28;98913;-67
2022/04/30 00:44:57;;;;;;;69.15;50.75;;;17.70;56.80;;;;;;4922986;28;97533;-67
2022/04/30 00:47:24;;;;;;;68.97;50.75;;;17.70;56.90;;;;;;4925177;28;95659;-66
2022/04/30 00:49:50;;;;;;;68.28;50.45;;;17.70;56.80;;;;;;4920646;28;95488;-66
2022/04/30 00:52:17;;;;;;;67.28;50.10;;;17.70;56.90;;;;;;4908176;28;97658;-67
2022/04/30 00:54:49;;;;;;;68.30;50.83;;;17.70;56.70;;;;;;4908405;28;96032;-66
2022/04/30 00:57:18;;;;;;;68.07;50.20;;;17.70;56.90;;;;;;4919507;28;96666;-67
2022/04/30 00:59:44;;;;;;;68.10;50.55;;;17.70;57.00;;;;;;4926781;28;96318;-67
2022/04/30 01:02:11;;;;;;;68.32;50.17;;;17.70;56.90;;;;;;4930281;28;95479;-67
2022/04/30 01:04:37;;;;;;;69.47;50.30;;;17.70;57.00;;;;;;4916666;28;101758;-66
2022/04/30 01:07:08;;;;;;;69.03;50.20;;;17.70;57.00;;;;;;4914233;28;101336;-67
2022/04/30 01:09:37;;;;;;;67.85;50.30;;;17.70;57.00;;;;;;4911863;28;97386;-67
2022/04/30 01:12:08;;;;;;;67.43;50.38;;;17.60;56.90;;;;;;4919995;28;96700;-67
2022/04/30 01:14:34;;;;;;;69.22;50.83;;;17.60;56.90;;;;;;4908174;28;96261;-66
2022/04/30 01:17:05;;;;;;;68.82;50.33;;;17.60;57.00;;;;;;4908554;28;96245;-66
2022/04/30 01:19:32;;;;;;;68.20;50.30;;;17.60;57.00;;;;;;4910577;28;95697;-67
2022/04/30 01:22:00;;;;;;;69.00;50.65;;;17.60;57.00;;;;;;4921516;28;97155;-68
2022/04/30 01:24:27;;;;;;;68.35;50.17;;;17.60;56.90;;;;;;4922636;28;96964;-66
2022/04/30 01:26:54;;;;;;;68.05;50.65;;;17.60;57.00;;;;;;4913131;28;100676;-66
2022/04/30 01:29:21;;;;;;;68.13;50.50;;;17.60;57.00;;;;;;4923442;28;95984;-66
2022/04/30 01:37:25;;;;;;;67.95;50.92;;;17.50;57.00;;;;;;4922509;28;95859;-67
2022/04/30 01:40:11;;;;;;;67.20;50.33;;;17.50;57.10;;;;;;4909517;28;96220;-66
2022/04/30 01:42:47;;;;;;;67.78;50.33;;;17.60;57.20;;;;;;4915609;28;96292;-66
2022/04/30 01:45:14;;;;;;;66.93;50.25;;;17.50;57.00;;;;;;4926023;28;95718;-66
2022/04/30 01:47:43;;;;;;;68.30;50.80;;;17.50;57.20;;;;;;4930676;28;95869;-66
2022/04/30 01:50:09;;;;;;;67.30;49.75;;;17.50;57.00;;;;;;4916768;28;95596;-66
2022/04/30 01:52:35;;;;;;;69.03;50.78;;;17.50;57.10;;;;;;4907624;28;95055;-66
2022/04/30 01:55:01;;;;;;;68.65;50.83;;;17.40;56.90;;;;;;4922154;28;95875;-69
2022/04/30 01:57:27;;;;;;;68.07;50.38;;;17.40;57.00;;;;;;4928848;28;95308;-66
2022/04/30 01:59:54;;;;;;;67.35;50.25;;;17.40;57.00;;;;;;4916238;28;96295;-66
2022/04/30 02:02:23;;;;;;;67.28;50.45;;;17.40;57.10;;;;;;4914768;28;96621;-65
2022/04/30 02:04:51;;;;;;;66.82;50.17;;;17.50;57.10;;;;;;4916506;28;97076;-68
2022/04/30 02:07:18;;;;;;;67.20;50.75;;;17.40;56.90;;;;;;4910364;28;96320;-68
2022/04/30 02:09:44;;;;;;;69.07;50.60;;;17.40;57.20;;;;;;4926592;28;95233;-67
2022/04/30 02:12:10;;;;;;;67.18;50.30;;;17.40;57.00;;;;;;4912255;28;95300;-68
2022/04/30 02:14:39;;;;;;;66.60;49.80;;;17.40;57.10;;;;;;4924010;28;95060;-66
2022/04/30 02:17:06;;;;;;;66.60;49.95;;;17.40;57.10;;;;;;4922585;28;98501;-67
2022/04/30 02:20:18;;;;;;;68.75;50.40;;;17.40;57.20;;;;;;4920067;28;95364;-68
2022/04/30 02:22:21;;;;;;;66.45;49.92;;;17.40;57.10;;;;;;4915676;28;96216;-69
2022/04/30 02:24:48;;;;;;;67.78;50.28;;;17.30;57.10;;;;;;4916477;28;96695;-67
2022/04/30 02:27:14;;;;;;;67.78;50.38;;;17.30;57.40;;;;;;4916533;28;96246;-67
2022/04/30 02:29:39;;;;;;;67.63;50.40;;;17.30;57.20;;;;;;4922319;28;95389;-68
2022/04/30 02:32:05;;;;;;;67.15;50.10;;;17.30;57.10;;;;;;4912654;28;95488;-67
2022/04/30 02:34:31;;;;;;;68.13;50.13;;;17.30;57.20;;;;;;4914453;28;95859;-67
2022/04/30 02:36:57;;;;;;;67.20;50.20;;;17.30;57.30;;;;;;4916407;28;96930;-67
2022/04/30 02:39:22;;;;;;;67.75;50.65;;;17.20;57.30;;;;;;4924245;28;97256;-68
2022/04/30 02:41:48;;;;;;;66.45;49.95;;;17.30;57.30;;;;;;4914826;28;95950;-67
2022/04/30 02:44:14;;;;;;;66.80;50.22;;;17.20;57.30;;;;;;4918074;28;95865;-67
2022/04/30 02:46:40;;;;;;;66.65;50.15;;;17.20;57.30;;;;;;4929900;28;95480;-68
2022/04/30 02:49:05;;;;;;;67.53;50.60;;;17.20;57.30;;;;;;4914445;28;96759;-68
2022/04/30 02:51:31;;;;;;;67.05;50.20;;;17.20;57.40;;;;;;4910837;28;95856;-68
2022/04/30 02:53:57;;;;;;;67.25;50.55;;;17.10;57.20;;;;;;4900844;28;95627;-67
2022/04/30 02:56:22;;;;;;;67.47;50.38;;;17.20;57.40;;;;;;4913563;28;95958;-68
2022/04/30 03:01:33;;;;;;;66.93;49.85;;;17.20;57.40;;;;;;4916291;28;96045;-68
2022/04/30 03:04:01;;;;;;;66.75;49.90;;;17.10;57.40;;;;;;4916040;28;95553;-68
2022/04/30 03:06:26;;;;;;;67.32;50.67;;;17.10;57.30;;;;;;4926591;28;94295;-67
2022/04/30 03:08:52;;;;;;;67.88;50.28;;;17.10;57.20;;;;;;4920464;28;95449;-67
2022/04/30 03:11:19;;;;;;;66.53;50.25;;;17.10;57.30;;;;;;4923860;28;95774;-68
2022/04/30 03:13:45;;;;;;;66.80;49.85;;;17.10;57.40;;;;;;4913044;28;96172;-67
2022/04/30 03:21:42;;;;;;;68.07;50.20;;;17.10;57.40;;;;;;4912296;28;96463;-67
2022/04/30 03:24:11;;;;;;;66.28;49.97;;;17.00;57.30;;;;;;4926859;28;95104;-67
2022/04/30 03:26:38;;;;;;;66.57;49.60;;;17.00;57.20;;;;;;4935106;28;95149;-67
2022/04/30 03:29:04;;;;;;;66.95;50.20;;;17.00;57.30;;;;;;4929812;28;94720;-67
2022/04/30 03:31:32;;;;;;;66.93;50.03;;;17.00;57.30;;;;;;4934602;28;95020;-68
2022/04/30 03:33:58;;;;;;;67.63;50.47;;;17.00;57.40;;;;;;4928955;28;95304;-67
2022/04/30 03:36:23;;;;;;;66.28;50.03;;;17.00;57.30;;;;;;4928780;28;96804;-67
2022/04/30 03:38:49;;;;;;;67.00;49.63;;;16.90;57.40;;;;;;4931288;28;96500;-67
2022/04/30 03:41:18;;;;;;;68.82;50.20;;;16.90;57.50;;;;;;4930584;28;96287;-68
2022/04/30 03:43:43;;;;;;;67.15;50.35;;;16.90;57.40;;;;;;4928841;28;101056;-67
2022/04/30 03:46:09;;;;;;;67.00;50.22;;;17.00;57.40;;;;;;4928840;28;95115;-66
2022/04/30 03:48:35;;;;;;;66.78;50.22;;;16.90;57.40;;;;;;4913483;28;96551;-67
2022/04/30 03:51:01;;;;;;;66.45;50.08;;;16.90;57.50;;;;;;4917422;28;96043;-68
2022/04/30 03:53:26;;;;;;;66.50;50.30;;;16.90;57.50;;;;;;4917462;28;100327;-67
2022/04/30 03:55:53;;;;;;;66.55;50.28;;;16.90;57.50;;;;;;4917836;28;95187;-67
2022/04/30 03:58:19;;;;;;;69.03;50.72;;;16.90;57.50;;;;;;4920751;28;96274;-67
2022/04/30 04:00:48;;;;;;;66.72;50.33;;;16.90;57.40;;;;;;4903680;28;100882;-68
2022/04/30 04:03:14;;;;;;;68.05;50.15;;;16.90;57.40;;;;;;4928656;28;96717;-68
2022/04/30 04:05:40;;;;;;;67.13;50.53;;;16.80;57.40;;;;;;4919340;28;97294;-68
2022/04/30 04:08:11;;;;;;;66.20;49.92;;;16.80;57.30;;;;;;4919611;28;95792;-67
2022/04/30 04:10:41;;;;;;;66.35;50.03;;;16.80;57.50;;;;;;4916214;28;96721;-68
2022/04/30 04:18:36;;;;;;;65.90;49.92;;;16.80;57.60;;;;;;4935668;28;95468;-68
2022/04/30 04:21:02;;;;;;;65.90;50.05;;;16.80;57.60;;;;;;4923181;28;95187;-68
2022/04/30 04:23:28;;;;;;;66.70;50.33;;;16.80;57.40;;;;;;4952200;28;94827;-68
2022/04/30 04:26:00;;;;;;;65.75;50.08;;;16.80;57.40;;;;;;4923315;28;96240;-68
2022/04/30 04:28:27;;;;;;;66.45;49.83;;;16.80;57.60;;;;;;4928260;28;96921;-69
2022/04/30 04:30:53;;;;;;;65.35;49.45;;;16.80;57.60;;;;;;4911637;28;96849;-68
2022/04/30 04:33:18;;;;;;;67.60;50.33;;;16.70;57.50;;;;;;4919922;28;95507;-68
2022/04/30 04:35:44;;;;;;;66.25;49.88;;;16.80;57.40;;;;;;4910754;28;96406;-68
2022/04/30 04:38:10;;;;;;;66.55;50.03;;;16.80;57.60;;;;;;4921003;28;95773;-68
2022/04/30 04:40:35;;;;;;;66.45;49.85;;;16.70;57.60;;;;;;4920658;28;95930;-68
2022/04/30 04:43:01;;;;;;;66.03;49.88;;;16.70;57.50;;;;;;4919748;28;95657;-68
2022/04/30 04:45:27;;;;;;;66.40;49.97;;;16.70;57.50;;;;;;4917117;28;96071;-68
2022/04/30 04:47:53;;;;;;;66.47;50.40;;;16.70;57.50;;;;;;4918889;28;98517;-68
2022/04/30 04:50:22;;;;;;;65.57;49.63;;;16.70;57.40;;;;;;4921142;28;95891;-68
2022/04/30 04:52:48;;;;;;;68.22;50.05;;;16.70;57.40;;;;;;4914907;28;97778;-68
2022/04/30 04:55:15;;;;;;;66.60;49.85;;;16.70;57.30;;;;;;4905742;28;95663;-68
2022/04/30 04:57:41;;;;;;;65.93;49.85;;;16.70;57.50;;;;;;4909590;28;97961;-68
2022/04/30 05:00:08;;;;;;;66.25;50.05;;;16.70;57.40;;;;;;4919541;28;95232;-69
2022/04/30 05:02:34;;;;;;;66.07;49.63;;;16.70;57.30;;;;;;4921446;28;95107;-68
2022/04/30 05:05:00;;;;;;;66.13;49.80;;;16.60;57.40;;;;;;4933180;28;95330;-68
2022/04/30 05:07:25;;;;;;;67.05;50.38;;;16.60;57.20;;;;;;4937764;28;96454;-68
2022/04/30 05:09:52;;;;;;;66.35;49.58;;;16.60;57.40;;;;;;4932575;28;98078;-68
2022/04/30 05:12:18;;;;;;;66.28;49.70;;;16.60;57.40;;;;;;4916499;28;104710;-68
2022/04/30 05:14:43;;;;;;;66.22;50.10;;;16.60;57.40;;;;;;4923782;28;95330;-68
2022/04/30 05:17:09;;;;;;;66.68;50.22;;;16.60;57.40;;;;;;4916687;28;96673;-68
2022/04/30 05:19:35;;;;;;;66.47;49.83;;;16.60;57.40;;;;;;4920622;28;96401;-69
2022/04/30 05:22:01;;;;;;;66.35;50.17;;;16.60;57.40;;;;;;4917842;28;96323;-68
2022/04/30 05:24:27;;;;;;;65.20;49.72;;;16.60;57.40;;;;;;4919162;28;101431;-69
2022/04/30 05:26:53;;;;;;;65.63;50.13;;;16.60;57.40;;;;;;4921139;28;96983;-69
2022/04/30 05:29:19;;;;;;;66.60;50.08;;;16.60;57.20;;;;;;4923118;28;100340;-68
2022/04/30 05:31:45;;;;;;;66.47;49.70;;;16.60;57.20;;;;;;4915044;28;95210;-68
2022/04/30 05:34:10;;;;;;;65.57;49.72;;;16.60;57.30;;;;;;4918531;28;95626;-69
2022/04/30 05:36:38;;;;;;;66.38;50.05;;;16.60;57.20;;;;;;4917167;28;95770;-69
2022/04/30 05:39:04;;;;;;;66.32;50.22;;;16.60;57.20;;;;;;4922570;28;95756;-68
2022/04/30 05:41:30;;;;;;;66.30;49.63;;;16.60;57.20;;;;;;4914234;28;97464;-69
2022/04/30 05:43:55;;;;;;;65.72;49.38;;;16.60;57.40;;;;;;4917122;28;96334;-67
2022/04/30 05:46:21;;;;;;;66.30;49.63;;;16.60;57.40;;;;;;4920680;28;95637;-69
2022/04/30 05:48:47;;;;;;;65.60;49.60;;;16.60;57.20;;;;;;4926344;28;95070;-69
2022/04/30 05:51:12;;;;;;;67.32;50.00;;;16.60;57.20;;;;;;4922323;28;95190;-69
2022/04/30 05:53:38;;;;;;;65.72;49.78;;;16.60;57.20;;;;;;4923744;28;95047;-70
2022/04/30 05:56:04;;;;;;;66.07;50.17;;;16.60;57.10;;;;;;4921186;28;95420;-69
2022/04/30 05:58:30;;;;;;;66.45;50.15;;;16.60;57.20;;;;;;4918867;28;95010;-68
2022/04/30 06:00:55;;;;;;;66.03;49.65;;;16.60;57.80;;;;;;4917095;28;97861;-69
2022/04/30 06:03:21;;;;;;;65.82;49.65;;;16.60;57.20;;;;;;4921488;28;97957;-69
2022/04/30 06:05:47;;;;;;;66.10;50.35;;;16.60;57.20;;;;;;4921499;28;97660;-69
2022/04/30 06:08:12;;;;;;;66.80;50.10;;;16.60;57.20;;;;;;4914268;28;99870;-69
2022/04/30 06:10:38;;;;;;;65.72;49.45;;;16.60;57.20;;;;;;4919903;28;95041;-68
2022/04/30 06:13:04;;;;;;;66.05;49.95;;;16.60;57.20;;;;;;4933215;28;97279;-68
2022/04/30 06:15:30;;;;;;;66.22;49.78;;;16.60;57.10;;;;;;4919565;28;99947;-67
2022/04/30 06:17:56;;;;;;;66.95;49.80;;;16.60;57.20;;;;;;4920485;28;94856;-68
2022/04/30 06:20:21;;;;;;;67.60;50.25;;;16.60;57.10;;;;;;4908236;28;95028;-68
2022/04/30 06:22:47;;;;;;;66.07;49.92;;;16.60;57.10;;;;;;4918726;28;96687;-66
2022/04/30 06:25:12;;;;;;;66.03;49.65;;;16.60;57.20;;;;;;4916425;28;97752;-67
2022/04/30 06:27:39;;;;;;;66.47;49.50;;;16.60;57.20;;;;;;4915234;28;98632;-67
2022/04/30 06:30:08;;;;;;;67.45;50.13;;;16.60;57.20;;;;;;4912319;28;100119;-68
2022/04/30 06:32:34;;;;;;;66.25;49.83;;;16.60;57.20;;;;;;4919248;28;94723;-68
2022/04/30 06:35:02;;;;;;;66.95;49.95;;;16.70;57.30;;;;;;4917177;28;97545;-66
2022/04/30 06:37:28;;;;;;;67.65;49.53;;;16.70;57.60;;;;;;4917951;28;98954;-66
2022/04/30 06:39:53;;;;;;;67.43;49.88;;;16.70;57.40;;;;;;4919488;28;96125;-66
2022/04/30 06:42:19;;;;;;;66.03;49.55;;;16.70;57.40;;;;;;4913303;28;95144;-67
2022/04/30 06:44:45;;;;;;;67.07;49.55;;;16.70;57.30;;;;;;4917043;28;103127;-68
2022/04/30 06:47:11;;;;;;;69.05;50.10;;;16.70;57.40;;;;;;4916386;28;98181;-67
2022/04/30 06:49:36;;;;;;;68.85;50.08;;;16.70;57.30;;;;;;4915928;28;97530;-68
2022/04/30 06:52:03;;;;;;;70.90;50.92;;;16.70;57.40;;;;;;4908729;28;95559;-68
2022/04/30 06:57:26;;;;;;;70.90;50.60;;;16.80;57.70;;;;;;4903442;28;101337;-68
2022/04/30 06:59:54;;;;;;;76.22;51.05;;;16.80;57.30;;;;;;4916220;28;95627;-68
2022/04/30 07:02:22;;;;;;;71.35;50.53;;;16.80;57.50;;;;;;4913056;28;95104;-68
2022/04/30 07:04:52;;;;;;;72.95;51.15;;;16.90;57.80;;;;;;4907770;28;95512;-69
2022/04/30 07:07:21;;;;;;;69.45;50.40;;;16.90;57.20;;;;;;4909477;28;96017;-67
2022/04/30 07:09:47;;;;;;;71.18;50.92;;;16.90;57.40;;;;;;4914905;28;94858;-68
2022/04/30 07:12:14;;;;;;;69.50;50.88;;;16.90;57.60;;;;;;4908571;28;97190;-68
2022/04/30 07:14:41;;;;;;;67.90;50.83;;;17.00;57.60;;;;;;4905561;28;99533;-67
2022/04/30 07:17:08;;;;;;;68.80;51.10;;;17.00;57.40;;;;;;4915232;28;97942;-68
2022/04/30 07:19:35;;;;;;;69.68;50.88;;;17.00;57.60;;;;;;4913479;28;96335;-68
2022/04/30 07:22:02;;;;;;;71.43;51.08;;;17.00;57.30;;;;;;4917793;28;95059;-69
2022/04/30 07:24:28;;;;;;;69.95;50.30;;;17.00;57.20;;;;;;4915134;28;97457;-69
2022/04/30 07:26:54;;;;;;;70.25;50.65;;;17.10;57.20;;;;;;4922294;28;95828;-68
2022/04/30 07:29:20;;;;;;;70.70;50.85;;;17.10;57.00;;;;;;4921059;28;100191;-69
2022/04/30 07:31:46;;;;;;;68.78;50.80;;;17.10;57.10;;;;;;4930812;28;95492;-68
2022/04/30 07:34:12;;;;;;;70.22;50.67;;;17.10;57.10;;;;;;4910142;28;95283;-68
2022/04/30 07:36:38;;;;;;;70.07;50.88;;;17.10;57.20;;;;;;4905839;28;99051;-69
2022/04/30 07:39:04;;;;;;;71.63;51.03;;;17.10;56.90;;;;;;4920660;28;95214;-68
2022/04/30 07:41:31;;;;;;;71.88;50.85;;;17.10;56.90;;;;;;4925667;28;95207;-69
2022/04/30 07:43:57;;;;;;;72.00;50.85;;;17.20;56.80;;;;;;4917426;28;95998;-69
2022/04/30 07:46:22;;;;;;;68.68;50.75;;;17.20;56.80;;;;;;4926735;28;97052;-69
2022/04/30 07:48:49;;;;;;;72.25;50.85;;;17.20;56.60;;;;;;4927254;28;96275;-69
2022/04/30 07:51:18;;;;;;;71.63;51.10;;;17.20;56.60;;;;;;4908312;28;96140;-68
2022/04/30 07:53:44;;;;;;;69.65;50.92;;;17.20;56.70;;;;;;4925548;28;102164;-68
2022/04/30 07:56:11;;;;;;;71.22;51.50;;;17.20;56.60;;;;;;4919349;28;95267;-68
2022/04/30 07:58:37;;;;;;;68.63;50.58;;;17.20;56.70;;;;;;4921360;28;95097;-68
2022/04/30 08:01:03;;;;;;;70.68;50.90;;;17.20;56.60;;;;;;4919809;28;95687;-68
2022/04/30 08:03:29;;;;;;;69.53;51.17;;;17.20;56.60;;;;;;4912861;28;97040;-73
2022/04/30 08:05:54;;;;;;;77.32;50.95;;;17.20;56.60;;;;;;4911094;28;97017;-69
2022/04/30 08:08:20;;;;;;;71.90;51.08;;;17.20;56.80;;;;;;4923464;28;97323;-69
2022/04/30 08:10:46;;;;;;;72.90;51.30;;;17.30;56.60;;;;;;4919046;28;95329;-68
2022/04/30 08:13:12;;;;;;;72.20;51.28;;;17.20;56.50;;;;;;4917334;28;96815;-69
2022/04/30 08:15:43;;;;;;;73.90;50.85;;;17.20;56.20;;;;;;4916438;28;95266;-69
2022/04/30 08:18:10;;;;;;;72.65;51.45;;;17.20;56.50;;;;;;4931992;28;95104;-68
2022/04/30 08:20:37;;;;;;;70.00;51.10;;;17.20;56.40;;;;;;4914812;28;96580;-70
2022/04/30 08:23:07;;;;;;;73.13;51.30;;;17.20;56.40;;;;;;4914555;28;95924;-67
2022/04/30 08:25:35;;;;;;;72.68;51.30;;;17.30;56.40;;;;;;4912161;28;96865;-67
2022/04/30 08:28:03;;;;;;;70.20;50.85;;;17.30;56.50;;;;;;4913433;28;96574;-67
2022/04/30 08:30:29;;;;;;;72.82;51.70;;;17.30;56.40;;;;;;4909836;28;95673;-67
2022/04/30 08:32:55;;;;;;;73.72;51.80;;;17.30;56.30;;;;;;4915650;28;96314;-66
2022/04/30 08:35:21;;;;;;;73.90;52.05;;;17.40;56.20;;;;;;4916188;28;96469;-67
2022/04/30 08:37:46;;;;;;;77.82;52.30;;;17.40;56.20;;;;;;4921847;28;95979;-68
2022/04/30 08:40:12;;;;;;;75.22;52.50;;;17.40;56.30;;;;;;4923571;28;96242;-69
2022/04/30 08:42:38;;;;;;;77.65;52.67;;;17.50;56.40;;;;;;4916355;28;96875;-69
2022/04/30 08:45:08;;;;;;;79.43;52.33;;;17.50;56.70;;;;;;4923949;28;96277;-69
2022/04/30 08:47:41;;;;;;;75.43;52.53;;;17.50;56.60;;;;;;4919868;28;95457;-67
2022/04/30 08:50:12;;;;;;;78.80;52.97;;;17.50;56.50;;;;;;4910278;28;95796;-68
2022/04/30 08:52:38;;;;;;;78.83;52.40;;;17.50;56.70;;;;;;4911302;28;96365;-65
2022/04/30 08:55:05;;;;;;;86.18;52.80;;;17.60;56.60;;;;;;4912584;28;95862;-69
2022/04/30 08:57:31;;;;;;;76.85;52.22;;;17.60;56.30;;;;;;4911830;28;99188;-69
2022/04/30 08:59:58;;;;;;;78.13;52.60;;;17.60;56.20;;;;;;4919637;28;95539;-69
2022/04/30 09:02:25;;;;;;;76.10;52.63;;;17.70;55.90;;;;;;4919428;28;95989;-68
2022/04/30 09:04:51;;;;;;;78.82;52.55;;;17.70;55.80;;;;;;4908835;28;95812;-69
2022/04/30 09:07:19;;;;;;;76.75;52.50;;;17.70;55.80;;;;;;4920440;28;95150;-69
2022/04/30 09:09:58;;;;;;;78.75;52.80;;;17.70;55.60;;;;;;4922904;28;94653;-69
2022/04/30 09:12:26;;;;;;;77.15;52.10;;;17.80;55.60;;;;;;4919668;28;95966;-69
2022/04/30 09:14:52;;;;;;;80.30;52.38;;;17.80;55.70;;;;;;4925138;28;94852;-70
2022/04/30 09:17:18;;;;;;;77.28;52.40;;;17.80;55.80;;;;;;4905455;28;96147;-69
2022/04/30 09:20:02;;;;;;;76.20;53.25;;;17.80;55.70;;;;;;4902373;28;96259;-69
2022/04/30 09:22:36;;;;;;;74.07;52.75;;;17.80;55.20;;;;;;4905914;28;97179;-70
2022/04/30 09:25:09;;;;;;;83.57;52.83;;;17.80;55.50;;;;;;4902543;28;100247;-69
2022/04/30 09:27:45;;;;;;;84.80;53.17;;;17.80;55.50;;;;;;4907696;28;95808;-68
2022/04/30 09:30:18;;;;;;;78.90;52.45;;;17.80;55.30;;;;;;4899481;28;99467;-68
2022/04/30 09:32:44;;;;;;;78.38;52.85;;;17.90;55.40;;;;;;4910129;28;95297;-69
2022/04/30 09:38:04;;;;;;;77.90;52.80;;;17.80;55.30;;;;;;4918903;28;103498;-68
2022/04/30 09:40:31;;;;;;;79.97;53.40;;;17.90;55.30;;;;;;4913940;28;98786;-69
2022/04/30 09:42:56;;;;;;;79.50;53.47;;;17.90;55.20;;;;;;4904679;28;98522;-69
2022/04/30 09:45:48;;;;;;;80.85;53.92;;;17.90;55.30;;;;;;4919469;28;95893;-70
2022/04/30 09:54:00;;;;;;;79.43;54.30;;;18.00;54.80;;;;;;4917022;28;95857;-70
2022/04/30 09:56:37;;;;;;;78.78;54.42;;;18.00;55.00;;;;;;4925918;28;96775;-70
2022/04/30 09:59:13;;;;;;;77.75;54.33;;;18.00;54.90;;;;;;4918171;28;99777;-70
2022/04/30 10:01:40;;;;;;;81.15;53.97;;;18.00;54.40;;;;;;4924425;28;96041;-70
2022/04/30 10:04:17;;;;;;;79.97;53.90;;;18.00;54.60;;;;;;4938135;28;96593;-69
2022/04/30 10:06:51;;;;;;;83.93;53.97;;;18.00;54.50;;;;;;4911325;28;99007;-69
2022/04/30 10:09:39;;;;;;;79.75;54.08;;;18.00;54.80;;;;;;4921286;28;96287;-70
2022/04/30 10:12:26;;;;;;;79.93;53.58;;;18.00;54.80;;;;;;4923401;28;97531;-70
2022/04/30 10:15:11;;;;;;;76.97;53.25;;;18.00;54.90;;;;;;4920786;28;101803;-70
2022/04/30 10:17:41;;;;;;;75.05;53.22;;;18.10;55.00;;;;;;4916935;28;97384;-68
2022/04/30 10:20:51;;;;;;;76.90;53.53;;;18.10;55.60;;;;;;4921102;28;96747;-70
2022/04/30 10:22:59;;;;;;;;;;;18.10;55.00;;;;;;4912313;28;96931;-69
2022/04/30 10:25:41;;;;;;;77.43;53.67;;;18.10;55.00;;;;;;4916368;28;95884;-69
2022/04/30 10:28:24;;;;;;;77.45;53.45;;;18.10;55.00;;;;;;4903993;28;97765;-69
2022/04/30 10:31:06;;;;;;;75.97;53.03;;;18.10;55.00;;;;;;4913667;28;95016;-69
2022/04/30 10:33:33;;;;;;;78.65;53.17;;;18.10;54.90;;;;;;4907595;28;96856;-69
2022/04/30 10:36:06;;;;;;;76.10;53.78;;;18.10;55.00;;;;;;4904409;28;97760;-69
2022/04/30 10:38:33;;;;;;;77.45;53.85;;;18.10;55.00;;;;;;4919636;28;96000;-69
2022/04/30 10:41:00;;;;;;;78.10;53.53;;;18.10;54.90;;;;;;4912001;28;96548;-69
2022/04/30 10:43:32;;;;;;;76.15;53.38;;;18.20;54.80;;;;;;4924598;28;95136;-69
2022/04/30 10:45:58;;;;;;;76.00;53.38;;;18.20;54.80;;;;;;4926355;28;96573;-70
2022/04/30 10:48:25;;;;;;;79.88;53.78;;;18.20;54.70;;;;;;4920831;28;96364;-69
2022/04/30 10:51:06;;;;;;;77.82;53.63;;;18.20;54.70;;;;;;4922747;28;100406;-69
2022/04/30 10:53:32;;;;;;;79.13;53.40;;;18.20;54.70;;;;;;4929417;28;95448;-69
2022/04/30 10:56:00;;;;;;;74.50;53.28;;;18.20;54.70;;;;;;4920763;28;96282;-69
2022/04/30 10:58:27;;;;;;;77.22;53.10;;;18.20;54.80;;;;;;4920092;28;94759;-69
2022/04/30 11:00:54;;;;;;;77.93;53.08;;;18.20;54.80;;;;;;4921570;28;95706;-69
2022/04/30 11:03:27;;;;;;;77.55;53.10;;;18.20;54.80;;;;;;4922436;28;95397;-69
2022/04/30 11:05:53;;;;;;;75.32;53.33;;;18.20;54.70;;;;;;4928735;28;97406;-69
2022/04/30 11:08:18;;;;;;;77.13;53.50;;;18.20;54.80;;;;;;4926046;28;97477;-70
2022/04/30 11:10:55;;;;;;;75.30;53.13;;;18.30;54.60;;;;;;4922983;28;98032;-69
2022/04/30 11:13:21;;;;;;;74.65;53.20;;;18.30;54.60;;;;;;4929251;28;96070;-69
2022/04/30 11:15:48;;;;;;;74.93;53.33;;;18.30;54.50;;;;;;4922635;28;96409;-69
2022/04/30 11:18:20;;;;;;;77.28;53.30;;;18.40;54.40;;;;;;4925485;28;96737;-69
2022/04/30 11:20:47;;;;;;;74.78;53.30;;;18.40;54.40;;;;;;4920902;28;96201;-69
2022/04/30 11:23:23;;;;;;;75.00;53.45;;;18.40;54.30;;;;;;4940178;28;94308;-68
2022/04/30 11:25:49;;;;;;;73.60;53.20;;;18.40;54.30;;;;;;4924416;28;95751;-70
2022/04/30 11:28:14;;;;;;;75.75;53.50;;;18.40;54.40;;;;;;4921957;28;95462;-69
2022/04/30 11:30:42;;;;;;;75.95;53.67;;;18.40;54.30;;;;;;4917107;28;96302;-69
2022/04/30 11:33:08;;;;;;;76.10;53.38;;;18.40;53.60;;;;;;4920770;28;96137;-70
2022/04/30 11:35:34;;;;;;;72.85;52.63;;;18.40;54.00;;;;;;4921706;28;95793;-70
2022/04/30 11:38:01;;;;;;;74.85;52.83;;;18.40;54.10;;;;;;4920136;28;95726;-69
2022/04/30 11:40:27;;;;;;;75.50;52.97;;;18.40;54.30;;;;;;4917911;28;95278;-70
2022/04/30 11:42:56;;;;;;;73.72;52.67;;;18.40;54.30;;;;;;4910900;28;96162;-70
2022/04/30 11:45:27;;;;;;;73.93;52.75;;;18.40;54.30;;;;;;4922977;28;95470;-70
2022/04/30 11:47:53;;;;;;;73.22;53.10;;;18.50;54.30;;;;;;4924402;28;95077;-70
2022/04/30 11:50:19;;;;;;;73.22;53.05;;;18.40;54.10;;;;;;4912367;28;97937;-70
2022/04/30 11:52:45;;;;;;;74.10;53.03;;;18.50;54.20;;;;;;4907649;28;96258;-70
2022/04/30 11:55:11;;;;;;;74.63;52.63;;;18.40;54.20;;;;;;4893454;28;96537;-68
2022/04/30 11:57:44;;;;;;;74.30;53.58;;;18.40;54.10;;;;;;4916648;28;96551;-69
2022/04/30 12:00:12;;;;;;;73.28;52.75;;;18.50;53.80;;;;;;4920169;28;97476;-67
2022/04/30 12:02:39;;;;;;;74.75;53.22;;;18.40;54.20;;;;;;4937414;28;99978;-69
2022/04/30 12:05:06;;;;;;;74.20;53.15;;;18.50;54.30;;;;;;4914321;28;97743;-69
2022/04/30 12:07:39;;;;;;;76.50;52.95;;;18.40;54.30;;;;;;4909016;28;95162;-69
2022/04/30 12:10:16;;;;;;;72.65;52.50;;;18.50;54.30;;;;;;4906776;28;99272;-68
2022/04/30 12:12:42;;;;;;;73.85;52.83;;;18.50;54.30;;;;;;4912681;28;95694;-69
2022/04/30 12:15:18;;;;;;;74.38;53.20;;;18.50;54.30;;;;;;4910099;28;98635;-68
2022/04/30 12:17:44;;;;;;;75.07;52.85;;;18.50;54.10;;;;;;4917093;28;96926;-68
2022/04/30 12:25:45;;;;;;;74.38;53.50;;;18.50;54.00;;;;;;4919276;28;96000;-69
2022/04/30 12:28:12;;;;;;;74.80;53.10;;;18.60;54.20;;;;;;4926222;28;98425;-69
2022/04/30 12:30:49;;;;;;;74.13;52.92;;;18.50;54.20;;;;;;4911523;28;96637;-69
2022/04/30 12:33:15;;;;;;;75.63;52.88;;;18.50;54.20;;;;;;4910455;28;95511;-69
2022/04/30 12:35:41;;;;;;;73.38;52.75;;;18.50;54.20;;;;;;4904181;28;96886;-68
2022/04/30 12:38:14;;;;;;;73.93;53.00;;;18.50;54.40;;;;;;4897993;28;95173;-68
2022/04/30 12:40:43;;;;;;;73.32;52.90;;;18.50;54.10;;;;;;4914705;28;95534;-69
2022/04/30 12:43:09;;;;;;;72.82;52.30;;;18.50;54.10;;;;;;4919075;28;97780;-66
2022/04/30 12:45:36;;;;;;;72.75;52.58;;;18.60;54.20;;;;;;4923781;28;96465;-69
2022/04/30 12:48:04;;;;;;;74.32;52.63;;;18.50;54.10;;;;;;4917013;28;95866;-69
2022/04/30 12:50:32;;;;;;;74.05;52.53;;;18.60;54.80;;;;;;4917814;28;98053;-68
2022/04/30 12:52:57;;;;;;;72.97;52.60;;;18.60;54.20;;;;;;4916422;28;95504;-68
2022/04/30 12:55:23;;;;;;;74.07;53.10;;;18.60;54.10;;;;;;4913923;28;95155;-70
2022/04/30 12:57:49;;;;;;;73.57;52.53;;;18.60;54.00;;;;;;4911050;28;96283;-68
2022/04/30 13:00:16;;;;;;;73.78;52.72;;;18.60;54.00;;;;;;4912076;28;96106;-67
2022/04/30 13:02:43;;;;;;;74.03;52.80;;;18.60;54.00;;;;;;4905342;28;99495;-70
2022/04/30 13:05:10;;;;;;;74.63;52.70;;;18.60;54.00;;;;;;4910163;28;95555;-69